Аэропорт: Элиста. Элиста

ICAO: URWI

METAR:
2018/05/20 23:00
URWI 202300Z AUTO 06002MPS 9999 // ///110/// 18/11 Q1012
METAR:
2018/04/19 09:12
TAF TAF URWI 190800Z 1909/1921 24008G14MPS 9999 SCT020CB 
      TEMPO 1909/1915 27010G17MPS 3100 -SHRA SCT011 BKN020CB PROB40 
      TEMPO 1909/1915 -TSRA